createdAt,value
2018-09-19T00:00:44.042Z,4.30
2018-09-19T00:03:13.523Z,3.90
2018-09-19T00:05:43.259Z,4.20
2018-09-19T00:08:12.941Z,4.23
2018-09-19T00:10:42.733Z,4.30
2018-09-19T00:13:11.952Z,4.23
2018-09-19T00:15:41.262Z,4.17
2018-09-19T00:18:10.786Z,4.33
2018-09-19T00:20:40.265Z,4.17
2018-09-19T00:23:09.803Z,4.23
2018-09-19T00:25:39.297Z,4.30
2018-09-19T00:28:08.924Z,4.53
2018-09-19T00:30:38.298Z,4.53
2018-09-19T00:33:07.865Z,4.63
2018-09-19T00:35:37.720Z,4.87
2018-09-19T00:38:07.909Z,4.60
2018-09-19T00:40:37.356Z,4.53
2018-09-19T00:43:07.294Z,4.73
2018-09-19T00:45:36.802Z,4.50
2018-09-19T00:48:06.638Z,4.70
2018-09-19T00:50:35.982Z,5.10
2018-09-19T00:53:05.679Z,4.87
2018-09-19T00:55:35.392Z,4.77
2018-09-19T00:58:04.917Z,4.80
2018-09-19T01:00:34.607Z,4.90
2018-09-19T01:03:04.130Z,5.10
2018-09-19T01:05:33.386Z,5.13
2018-09-19T01:08:02.944Z,4.80
2018-09-19T01:10:32.635Z,5.00
2018-09-19T01:13:02.159Z,5.20
2018-09-19T01:15:31.643Z,4.60
2018-09-19T01:18:01.170Z,4.90
2018-09-19T01:20:30.656Z,4.97
2018-09-19T01:23:00.168Z,4.93
2018-09-19T01:25:29.521Z,4.87
2018-09-19T01:27:59.134Z,4.70
2018-09-19T01:30:29.157Z,4.90
2018-09-19T01:32:59.042Z,4.97
2018-09-19T01:35:29.188Z,5.23
2018-09-19T01:37:59.099Z,5.47
2018-09-19T01:40:28.542Z,5.37
2018-09-19T01:42:57.899Z,5.60
2018-09-19T01:45:27.355Z,4.77
2018-09-19T01:47:57.028Z,5.40
2018-09-19T01:50:26.713Z,5.10
2018-09-19T01:52:56.381Z,4.97
2018-09-19T01:55:26.251Z,5.13
2018-09-19T01:57:55.670Z,5.10
2018-09-19T02:00:25.395Z,5.77
2018-09-19T02:02:56.127Z,5.50
2018-09-19T02:05:25.746Z,5.57
2018-09-19T02:07:55.155Z,5.37
2018-09-19T02:10:24.685Z,5.10
2018-09-19T02:12:54.848Z,5.17
2018-09-19T02:15:24.254Z,5.53
2018-09-19T02:17:53.776Z,5.63
2018-09-19T02:20:23.311Z,5.17
2018-09-19T02:22:52.587Z,5.70
2018-09-19T02:25:22.067Z,5.77
2018-09-19T02:27:51.641Z,5.83
2018-09-19T02:30:21.079Z,6.33
2018-09-19T02:32:50.587Z,5.83
2018-09-19T02:35:20.107Z,5.50
2018-09-19T02:37:49.672Z,5.50
2018-09-19T02:40:19.801Z,5.80
2018-09-19T02:42:49.957Z,5.53
2018-09-19T02:45:19.735Z,5.70
2018-09-19T02:47:49.700Z,6.00
2018-09-19T02:50:19.419Z,5.50
2018-09-19T02:52:55.236Z,5.67
2018-09-19T02:55:25.759Z,6.17
2018-09-19T02:57:55.290Z,5.70
2018-09-19T03:00:24.755Z,6.03
2018-09-19T03:02:54.079Z,5.20
2018-09-19T03:05:23.896Z,5.80
2018-09-19T03:07:53.349Z,6.00
2018-09-19T03:10:22.784Z,6.00
2018-09-19T03:12:52.519Z,5.53
2018-09-19T03:15:23.327Z,5.97
2018-09-19T03:17:53.227Z,6.60
2018-09-19T03:20:22.683Z,6.00
2018-09-19T03:22:52.187Z,6.10
2018-09-19T03:25:21.871Z,5.60
2018-09-19T03:27:51.611Z,5.90
2018-09-19T03:30:21.297Z,6.00
2018-09-19T03:32:51.023Z,6.27
2018-09-19T03:35:20.556Z,6.30
2018-09-19T03:37:50.013Z,6.00
2018-09-19T03:40:19.523Z,5.60
2018-09-19T03:42:49.403Z,6.03
2018-09-19T03:45:18.771Z,6.03
2018-09-19T03:47:48.213Z,5.63
2018-09-19T03:50:17.783Z,6.17
2018-09-19T03:52:47.089Z,6.00
2018-09-19T03:55:16.601Z,6.10
2018-09-19T03:57:46.372Z,6.40
2018-09-19T04:00:15.928Z,6.07
2018-09-19T04:02:45.288Z,6.43
2018-09-19T04:05:14.560Z,6.30
2018-09-19T04:07:44.066Z,6.20
2018-09-19T04:10:13.858Z,6.43
2018-09-19T04:12:43.075Z,6.80
2018-09-19T04:15:13.251Z,6.43
2018-09-19T04:17:42.700Z,7.33
2018-09-19T04:20:12.890Z,6.33
2018-09-19T04:22:42.115Z,7.40
2018-09-19T04:25:11.701Z,7.10
2018-09-19T04:27:41.533Z,6.97
2018-09-19T04:30:11.059Z,7.53
2018-09-19T04:32:40.591Z,7.10
2018-09-19T04:35:10.283Z,6.90
2018-09-19T04:37:40.007Z,7.07
2018-09-19T04:40:09.801Z,6.80
2018-09-19T04:42:39.258Z,6.73
2018-09-19T04:45:08.596Z,6.77
2018-09-19T04:47:38.005Z,6.73
2018-09-19T04:50:07.509Z,7.73
2018-09-19T04:52:37.053Z,6.70
2018-09-19T04:55:06.980Z,7.30
2018-09-19T04:57:36.619Z,6.90
2018-09-19T05:00:06.371Z,7.03
2018-09-19T05:02:37.087Z,7.60
2018-09-19T05:05:06.564Z,7.53
2018-09-19T05:07:36.304Z,7.47
2018-09-19T05:10:05.590Z,7.53
2018-09-19T05:12:35.107Z,7.50
2018-09-19T05:15:05.335Z,7.80
2018-09-19T05:17:34.691Z,8.30
2018-09-19T05:20:04.530Z,7.60
2018-09-19T05:22:33.935Z,7.43
2018-09-19T05:25:03.450Z,8.17
2018-09-19T05:27:33.777Z,8.47
2018-09-19T05:30:03.543Z,8.20
2018-09-19T05:32:33.099Z,8.17
2018-09-19T05:35:02.699Z,8.23
2018-09-19T05:37:32.406Z,7.73
2018-09-19T05:40:02.484Z,8.03
2018-09-19T05:42:31.805Z,7.97
2018-09-19T05:45:02.843Z,7.63
2018-09-19T05:47:32.256Z,7.60
2018-09-19T05:50:01.738Z,7.53
2018-09-19T05:52:31.682Z,8.00
2018-09-19T05:55:02.026Z,7.37
2018-09-19T05:57:31.509Z,8.17
2018-09-19T06:00:01.026Z,8.00
2018-09-19T06:02:30.533Z,7.37
2018-09-19T06:05:00.080Z,7.37
2018-09-19T06:07:29.654Z,7.43
2018-09-19T06:09:59.607Z,8.27
2018-09-19T06:12:29.202Z,7.73
2018-09-19T06:14:58.819Z,7.73
2018-09-19T06:17:28.257Z,7.80
2018-09-19T06:19:57.696Z,8.10
2018-09-19T06:22:27.196Z,7.87
2018-09-19T06:24:56.850Z,8.23
2018-09-19T06:27:26.178Z,8.27
2018-09-19T06:29:55.687Z,8.20
2018-09-19T06:32:25.982Z,7.83
2018-09-19T06:34:55.933Z,8.07
2018-09-19T06:37:26.014Z,8.10
2018-09-19T06:39:55.768Z,8.07
2018-09-19T06:42:25.927Z,7.97
2018-09-19T06:44:55.605Z,7.80
2018-09-19T06:47:25.187Z,7.50
2018-09-19T06:49:54.931Z,8.00
2018-09-19T06:52:24.390Z,7.53
2018-09-19T06:54:53.871Z,8.07
2018-09-19T06:57:23.316Z,7.83
2018-09-19T06:59:53.943Z,8.17
2018-09-19T07:02:23.359Z,7.67
2018-09-19T07:04:52.857Z,7.90
2018-09-19T07:07:22.370Z,7.10
2018-09-19T07:09:51.894Z,7.57
2018-09-19T07:12:21.571Z,8.33
2018-09-19T07:14:51.463Z,8.30
2018-09-19T07:17:20.996Z,9.60
2018-09-19T07:19:51.012Z,9.50
2018-09-19T07:22:20.367Z,10.17
2018-09-19T07:24:49.694Z,9.67
2018-09-19T07:27:19.240Z,8.90
2018-09-19T07:29:48.705Z,8.80
2018-09-19T07:32:18.285Z,8.40
2018-09-19T07:34:47.703Z,8.13
2018-09-19T07:37:17.275Z,7.73
2018-09-19T07:39:46.862Z,7.60
2018-09-19T07:42:16.755Z,7.00
2018-09-19T07:44:46.601Z,8.10
2018-09-19T07:47:15.870Z,6.40
2018-09-19T07:49:45.396Z,6.57
2018-09-19T07:52:14.929Z,6.30
2018-09-19T07:54:44.657Z,5.80
2018-09-19T07:57:14.127Z,6.17
2018-09-19T07:59:43.592Z,6.37
2018-09-19T08:02:13.150Z,5.70
2018-09-19T08:04:42.763Z,5.50
2018-09-19T08:07:12.125Z,5.63
2018-09-19T08:09:42.270Z,5.43
2018-09-19T08:12:11.729Z,6.73
2018-09-19T08:14:47.688Z,5.43
2018-09-19T08:17:17.113Z,5.37
2018-09-19T08:19:46.866Z,5.20
2018-09-19T08:22:16.324Z,5.03
2018-09-19T08:24:45.815Z,5.27
2018-09-19T08:27:15.520Z,5.60
2018-09-19T08:29:45.054Z,5.90
2018-09-19T08:32:14.698Z,5.87
2018-09-19T08:34:44.077Z,5.70
2018-09-19T08:37:13.748Z,6.07
2018-09-19T08:39:43.246Z,6.43
2018-09-19T08:42:12.960Z,6.70
2018-09-19T08:44:42.496Z,5.70
2018-09-19T08:47:12.169Z,6.07
2018-09-19T08:49:41.678Z,7.07
2018-09-19T08:52:11.753Z,5.90
2018-09-19T08:54:41.120Z,6.37
2018-09-19T08:57:10.662Z,7.53
2018-09-19T08:59:39.925Z,6.40
2018-09-19T09:02:09.599Z,6.60
2018-09-19T09:04:39.339Z,5.77
2018-09-19T09:07:08.542Z,5.97
2018-09-19T09:09:38.467Z,5.83
2018-09-19T09:12:07.912Z,5.17
2018-09-19T09:14:37.848Z,5.10
2018-09-19T09:17:07.920Z,5.77
2018-09-19T09:19:37.448Z,5.47
2018-09-19T09:22:06.725Z,5.77
2018-09-19T09:24:36.359Z,5.77
2018-09-19T09:27:06.951Z,5.37
2018-09-19T09:29:36.424Z,6.03
2018-09-19T09:32:05.942Z,5.53
2018-09-19T09:34:35.423Z,5.67
2018-09-19T09:37:05.082Z,5.30
2018-09-19T09:39:34.588Z,5.30
2018-09-19T09:42:03.788Z,5.77
2018-09-19T09:44:33.648Z,5.33
2018-09-19T09:47:03.207Z,4.97
2018-09-19T09:49:33.109Z,5.30
2018-09-19T09:52:02.683Z,5.63
2018-09-19T09:54:32.099Z,5.37
2018-09-19T09:57:01.787Z,6.47
2018-09-19T09:59:31.500Z,4.70
2018-09-19T10:02:01.011Z,4.60
2018-09-19T10:04:31.025Z,4.60
2018-09-19T10:07:00.842Z,4.67
2018-09-19T10:09:30.326Z,5.97
2018-09-19T10:11:59.907Z,5.03
2018-09-19T10:14:29.142Z,5.07
2018-09-19T10:16:58.969Z,5.20
2018-09-19T10:19:29.454Z,5.33
2018-09-19T10:21:58.904Z,4.97
2018-09-19T10:24:28.192Z,4.60
2018-09-19T10:26:57.663Z,4.73
2018-09-19T10:29:27.037Z,4.90
2018-09-19T10:31:56.470Z,4.67
2018-09-19T10:34:25.963Z,4.90
2018-09-19T10:36:56.070Z,4.27
2018-09-19T10:39:25.437Z,4.90
2018-09-19T10:41:54.905Z,5.17
2018-09-19T10:44:24.647Z,4.93
2018-09-19T10:46:54.133Z,5.07
2018-09-19T10:49:23.388Z,4.67
2018-09-19T10:51:53.194Z,4.80
2018-09-19T10:54:22.662Z,4.63
2018-09-19T10:56:52.164Z,4.20
2018-09-19T10:59:21.666Z,4.53
2018-09-19T11:01:51.152Z,4.17
2018-09-19T11:04:20.465Z,4.53
2018-09-19T11:06:50.187Z,4.40
2018-09-19T11:09:19.685Z,4.50
2018-09-19T11:11:49.837Z,4.70
2018-09-19T11:14:19.940Z,12.90
2018-09-19T11:16:49.831Z,4.33
2018-09-19T11:19:19.563Z,4.70
2018-09-19T11:21:49.662Z,4.37
2018-09-19T11:24:19.033Z,4.80
2018-09-19T11:26:48.335Z,4.50
2018-09-19T11:29:17.791Z,4.60
2018-09-19T11:31:47.075Z,4.70
2018-09-19T11:34:16.596Z,4.40
2018-09-19T11:36:46.083Z,5.23
2018-09-19T11:39:15.576Z,4.43
2018-09-19T11:41:45.121Z,4.40
2018-09-19T11:44:14.348Z,4.27
2018-09-19T11:46:43.689Z,6.30
2018-09-19T11:49:13.067Z,4.50
2018-09-19T11:51:43.590Z,4.27
2018-09-19T11:54:12.804Z,4.57
2018-09-19T11:56:42.527Z,4.70
2018-09-19T11:59:12.036Z,4.33
2018-09-19T12:01:41.550Z,4.37
2018-09-19T12:04:11.417Z,4.10
2018-09-19T12:06:40.971Z,4.60
2018-09-19T12:09:12.311Z,4.40
2018-09-19T12:11:41.817Z,4.30
2018-09-19T12:14:11.487Z,3.77
2018-09-19T12:16:41.031Z,4.33
2018-09-19T12:19:10.526Z,4.10
2018-09-19T12:21:40.659Z,4.20
2018-09-19T12:24:10.323Z,4.23
2018-09-19T12:26:40.768Z,4.40
2018-09-19T12:29:09.971Z,4.03
2018-09-19T12:31:39.710Z,3.90
2018-09-19T12:34:09.215Z,4.53
2018-09-19T12:36:38.703Z,4.37
2018-09-19T12:39:09.977Z,4.37
2018-09-19T12:41:39.843Z,4.10
2018-09-19T12:44:09.722Z,4.27
2018-09-19T12:46:39.290Z,4.70
2018-09-19T12:49:08.953Z,4.37
2018-09-19T12:51:38.463Z,4.27
2018-09-19T12:54:08.239Z,4.30
2018-09-19T12:56:37.454Z,4.30
2018-09-19T12:59:07.370Z,4.43
2018-09-19T13:01:36.867Z,4.30
2018-09-19T13:04:06.340Z,4.20
2018-09-19T13:06:35.827Z,4.37
2018-09-19T13:09:08.623Z,4.60
2018-09-19T13:11:38.587Z,4.57
2018-09-19T13:14:08.291Z,4.27
2018-09-19T13:16:37.794Z,4.00
2018-09-19T13:19:07.079Z,4.17
2018-09-19T13:21:37.236Z,4.10
2018-09-19T13:24:06.527Z,3.93
2018-09-19T13:26:36.019Z,3.97
2018-09-19T13:29:05.491Z,4.03
2018-09-19T13:31:34.991Z,5.00
2018-09-19T13:34:04.527Z,4.00
2018-09-19T13:36:34.227Z,4.37
2018-09-19T13:39:04.406Z,4.30
2018-09-19T13:41:33.828Z,4.03
2018-09-19T13:44:03.803Z,4.40
2018-09-19T13:46:33.035Z,4.10
2018-09-19T13:49:08.818Z,4.23
2018-09-19T13:51:38.187Z,3.73
2018-09-19T13:54:07.783Z,4.20
2018-09-19T13:56:37.591Z,4.33
2018-09-19T13:59:07.114Z,4.40
2018-09-19T14:01:36.763Z,3.90
2018-09-19T14:04:06.546Z,3.87
2018-09-19T14:06:36.419Z,4.07
2018-09-19T14:09:08.642Z,3.53
2018-09-19T14:11:38.619Z,4.40
2018-09-19T14:14:08.038Z,4.07
2018-09-19T14:16:38.050Z,4.20
2018-09-19T14:19:08.362Z,4.70
2018-09-19T14:21:37.796Z,4.40
2018-09-19T14:24:06.989Z,4.43
2018-09-19T14:26:36.641Z,4.50
2018-09-19T14:29:06.734Z,3.67
2018-09-19T14:31:36.242Z,3.83
2018-09-19T14:34:06.492Z,3.90
2018-09-19T14:36:35.719Z,3.80
2018-09-19T14:39:06.829Z,4.10
2018-09-19T14:41:36.114Z,4.13
2018-09-19T14:44:05.362Z,3.83
2018-09-19T14:46:35.151Z,3.80
2018-09-19T14:49:04.390Z,3.93
2018-09-19T14:51:33.665Z,3.57
2018-09-19T14:54:02.949Z,3.40
2018-09-19T14:56:32.132Z,3.80
2018-09-19T14:59:01.379Z,3.60
2018-09-19T15:01:30.603Z,3.60
2018-09-19T15:03:59.800Z,3.87
2018-09-19T15:06:29.043Z,4.43
2018-09-19T15:08:58.266Z,3.70
2018-09-19T15:11:27.494Z,4.20
2018-09-19T15:13:56.764Z,4.10
2018-09-19T15:16:25.967Z,4.03
2018-09-19T15:18:55.225Z,4.50
2018-09-19T15:21:24.440Z,4.20
2018-09-19T15:23:53.839Z,3.90
2018-09-19T15:26:24.182Z,4.03
2018-09-19T15:28:53.434Z,3.67
2018-09-19T15:31:22.698Z,4.10
2018-09-19T15:33:51.950Z,3.70
2018-09-19T15:36:21.129Z,4.00
2018-09-19T15:38:51.146Z,3.63
2018-09-19T15:41:21.008Z,4.00
2018-09-19T15:43:50.272Z,4.17
2018-09-19T15:46:19.500Z,4.20
2018-09-19T15:48:48.768Z,3.80
2018-09-19T15:51:18.072Z,3.80
2018-09-19T15:53:47.498Z,3.80
2018-09-19T15:56:16.680Z,3.90
2018-09-19T15:58:45.948Z,4.43
2018-09-19T16:01:15.138Z,3.70
2018-09-19T16:03:44.522Z,3.80
2018-09-19T16:06:14.255Z,4.20
2018-09-19T16:08:43.467Z,4.07
2018-09-19T16:11:13.282Z,4.63
2018-09-19T16:13:42.486Z,4.70
2018-09-19T16:16:12.312Z,4.10
2018-09-19T16:18:41.547Z,3.80
2018-09-19T16:21:10.747Z,3.70
2018-09-19T16:23:40.130Z,4.10
2018-09-19T16:26:09.355Z,4.13
2018-09-19T16:28:39.171Z,4.40
2018-09-19T16:31:08.915Z,3.97
2018-09-19T16:33:38.122Z,4.37
2018-09-19T16:36:07.395Z,4.20
2018-09-19T16:38:36.626Z,4.90
2018-09-19T16:41:06.040Z,4.23
2018-09-19T16:43:35.304Z,4.70
2018-09-19T16:46:04.551Z,4.60
2018-09-19T16:48:33.756Z,4.50
2018-09-19T16:51:03.025Z,4.90
2018-09-19T16:53:32.356Z,4.10
2018-09-19T16:56:01.617Z,3.80
2018-09-19T16:58:30.841Z,4.33
2018-09-19T17:01:00.779Z,4.53
2018-09-19T17:03:30.050Z,4.07
2018-09-19T17:05:59.341Z,4.20
2018-09-19T17:08:28.611Z,4.37
2018-09-19T17:10:57.935Z,4.17
2018-09-19T17:13:27.215Z,3.97
2018-09-19T17:15:57.329Z,4.30
2018-09-19T17:18:26.557Z,4.00
2018-09-19T17:20:55.847Z,4.53
2018-09-19T17:23:25.064Z,4.50
2018-09-19T17:25:54.387Z,3.60
2018-09-19T17:28:23.816Z,4.10
2018-09-19T17:30:53.874Z,3.90
2018-09-19T17:33:23.110Z,4.00
2018-09-19T17:35:52.324Z,3.90
2018-09-19T17:38:21.594Z,4.00
2018-09-19T17:40:50.815Z,4.30
2018-09-19T17:43:20.127Z,4.60
2018-09-19T17:45:49.341Z,4.73
2018-09-19T17:48:18.634Z,4.07
2018-09-19T17:50:47.914Z,4.60
2018-09-19T17:53:17.599Z,4.30
2018-09-19T17:55:46.835Z,4.03
2018-09-19T17:58:16.722Z,4.60
2018-09-19T18:00:46.018Z,4.30
2018-09-19T18:03:15.693Z,5.03
2018-09-19T18:05:44.937Z,4.97
2018-09-19T18:08:14.203Z,4.97
2018-09-19T18:10:43.411Z,4.40
2018-09-19T18:13:12.655Z,4.47
2018-09-19T18:15:42.749Z,4.47
2018-09-19T18:18:12.006Z,6.77
2018-09-19T18:20:41.294Z,4.23
2018-09-19T18:23:10.546Z,4.10
2018-09-19T18:25:39.828Z,4.10
2018-09-19T18:28:09.062Z,4.20
2018-09-19T18:30:38.290Z,4.30
2018-09-19T18:33:07.536Z,4.37
2018-09-19T18:35:36.758Z,6.17
2018-09-19T18:38:05.973Z,8.97
2018-09-19T18:40:35.299Z,5.10
2018-09-19T18:43:04.500Z,4.23
2018-09-19T18:45:33.763Z,6.13
2018-09-19T18:48:02.942Z,4.60
2018-09-19T18:50:32.313Z,4.30
2018-09-19T18:53:01.540Z,4.40
2018-09-19T18:55:30.779Z,5.07
2018-09-19T18:57:59.933Z,5.80
2018-09-19T19:00:29.177Z,5.23
2018-09-19T19:02:58.412Z,5.60
2018-09-19T19:05:27.694Z,4.33
2018-09-19T19:07:56.941Z,6.90
2018-09-19T19:10:26.104Z,4.80
2018-09-19T19:12:55.278Z,5.13
2018-09-19T19:15:24.486Z,4.53
2018-09-19T19:17:53.762Z,4.37
2018-09-19T19:20:23.370Z,4.57
2018-09-19T19:22:52.572Z,4.60
2018-09-19T19:25:22.170Z,4.43
2018-09-19T19:27:51.395Z,5.57
2018-09-19T19:30:20.890Z,4.50
2018-09-19T19:32:50.084Z,5.10
2018-09-19T19:35:19.320Z,4.63
2018-09-19T19:37:49.685Z,4.27
2018-09-19T19:40:19.007Z,4.67
2018-09-19T19:42:48.238Z,4.50
2018-09-19T19:45:17.487Z,4.40
2018-09-19T19:47:46.687Z,5.00
2018-09-19T19:50:15.930Z,8.63
2018-09-19T19:52:45.302Z,6.83
2018-09-19T19:55:14.594Z,8.00
2018-09-19T19:57:43.846Z,5.50
2018-09-19T20:00:13.095Z,4.80
2018-09-19T20:02:42.307Z,5.10
2018-09-19T20:05:11.458Z,5.23
2018-09-19T20:07:40.672Z,4.80
2018-09-19T20:10:09.962Z,4.40
2018-09-19T20:12:39.244Z,5.20
2018-09-19T20:15:08.407Z,4.40
2018-09-19T20:17:37.598Z,6.47
2018-09-19T20:20:06.835Z,6.13
2018-09-19T20:22:36.012Z,10.83
2018-09-19T20:25:05.300Z,15.90
2018-09-19T20:27:34.488Z,14.00
2018-09-19T20:30:03.807Z,4.90
2018-09-19T20:32:32.917Z,4.40
2018-09-19T20:35:02.122Z,11.40
2018-09-19T20:37:31.332Z,4.80
2018-09-19T20:40:00.615Z,8.33
2018-09-19T20:42:29.838Z,8.40
2018-09-19T20:44:59.074Z,7.33
2018-09-19T20:47:28.734Z,7.47
2018-09-19T20:49:57.928Z,11.70
2018-09-19T20:52:27.738Z,10.27
2018-09-19T20:54:56.944Z,12.63
2018-09-19T20:57:26.182Z,9.83
2018-09-19T20:59:55.790Z,4.43
2018-09-19T21:02:25.005Z,7.53
2018-09-19T21:04:54.235Z,6.73
2018-09-19T21:07:23.435Z,8.03
2018-09-19T21:09:52.692Z,8.10
2018-09-19T21:12:21.910Z,22.37
2018-09-19T21:14:51.114Z,10.73
2018-09-19T21:17:20.354Z,8.70
2018-09-19T21:19:49.586Z,4.40
2018-09-19T21:22:19.085Z,10.50
2018-09-19T21:24:48.103Z,15.20
2018-09-19T21:27:17.311Z,17.20
2018-09-19T21:29:46.497Z,10.30
2018-09-19T21:32:15.752Z,9.27
2018-09-19T21:34:44.905Z,9.20
2018-09-19T21:37:14.163Z,8.77
2018-09-19T21:39:43.501Z,11.13
2018-09-19T21:42:12.719Z,11.10
2018-09-19T21:44:42.027Z,6.90
2018-09-19T21:47:11.292Z,8.03
2018-09-19T21:49:40.497Z,7.03
2018-09-19T21:52:09.777Z,6.23
2018-09-19T21:54:38.968Z,6.80
2018-09-19T21:57:08.304Z,6.50
2018-09-19T21:59:37.559Z,6.17
2018-09-19T22:02:06.815Z,5.50
2018-09-19T22:04:36.900Z,5.60
2018-09-19T22:07:06.211Z,6.40
2018-09-19T22:09:35.419Z,6.30
2018-09-19T22:12:08.163Z,6.33
2018-09-19T22:14:37.688Z,5.70
2018-09-19T22:17:06.960Z,5.37
2018-09-19T22:19:36.207Z,5.10
2018-09-19T22:22:06.015Z,5.23
2018-09-19T22:24:35.823Z,4.97
2018-09-19T22:27:05.327Z,4.90
2018-09-19T22:29:35.274Z,5.10
2018-09-19T22:32:04.688Z,5.00
2018-09-19T22:34:37.389Z,5.00
2018-09-19T22:37:07.396Z,5.40
2018-09-19T22:39:36.835Z,5.60
2018-09-19T22:42:06.540Z,5.03
2018-09-19T22:44:37.998Z,5.73
2018-09-19T22:47:07.423Z,5.80
2018-09-19T22:49:40.316Z,7.13
2018-09-19T22:52:11.602Z,6.87
2018-09-19T22:54:43.107Z,5.87
2018-09-19T22:57:14.418Z,5.93
2018-09-19T22:59:45.963Z,6.33
2018-09-19T23:02:17.418Z,6.07
2018-09-19T23:04:48.941Z,5.53
2018-09-19T23:07:18.575Z,5.50
2018-09-19T23:09:48.522Z,5.37
2018-09-19T23:12:18.742Z,5.53
2018-09-19T23:14:48.352Z,5.37
2018-09-19T23:17:17.850Z,5.60
2018-09-19T23:19:47.341Z,5.63
2018-09-19T23:22:16.640Z,5.23
2018-09-19T23:24:46.526Z,4.80
2018-09-19T23:27:16.070Z,4.77
2018-09-19T23:29:45.391Z,5.30
2018-09-19T23:32:15.590Z,5.63
2018-09-19T23:34:44.991Z,5.10
2018-09-19T23:37:14.542Z,5.20
2018-09-19T23:39:43.992Z,5.57
2018-09-19T23:42:13.678Z,4.93
2018-09-19T23:44:43.028Z,5.10
2018-09-19T23:47:12.765Z,5.07
2018-09-19T23:49:43.269Z,5.17
2018-09-19T23:52:13.438Z,5.60
2018-09-19T23:54:43.290Z,5.17
2018-09-19T23:57:12.814Z,4.70
2018-09-19T23:59:42.447Z,5.27
